Portada
METAR-TAF:

METAR-TAF

Aeroports :

Grayslake, Illinois, Estats Units d'Amèrica

latitud: 42-19-29N, longitud: 088-04-27W, altitud: 240 m

Observació

L'informe es va fer fa 23 minuts, a les 01:55 UTC
Vent calma
Temperatura 12°C
Humitat 100%
Pressió 1020 hPa
Visibilitat: 6.4 km
Cel clar

METAR: KMBO 190155Z AUTO 00000KT 4SM CLR 12/12 A3013 RMK AO2 PWINO

Hora: 20:18 (02:18 UTC)


TAF: manca

Observacions i pronòstics meteorològics de més de 4000 aeroports (METAR i TAF).

Les estacions disponibles són els punts grocs i vermells al mapa.

Posi el ratolí al punt desitjat per veure el nom de l'estació.

Feu clic per veure les observacions i els pronòstics meteorològics.

Per canviar el mapa: feu clic els botons verds amb una creu de color negre per apropar; al botó verd amb un guió per allunyar la imatge; o en les fletxes verdes per a mapes adjacents.


METAR-TAF: